Spanish Town, Jamaica
Current Conditions -  °F | °C
As of 5:00 PM on Saturday 25 Oct 2014 (Local Time) from MKJS Reporting Station
Broken Clouds Broken Clouds  
Wind Chill: 84°   Ceiling: 3200
Heat Index: 92°   Visibility: 6mi
Dew Point: 75°   Wind: 10mph
Humidity: 74%   Direction: 220°SW
Pressure: 29.8"   Gusts: NA
Location:  18°N, 76.95°W
Report Text: MKJS 252200Z 22009KT 9999 FEW020 BKN032 29/24 Q1009
Loading
Personal Weather Stations






























Interactive Weather Map
Tropical Storm Tracking
New forecast layout! Learn more

10-Day Weather Forecast

Advertisements
Track Severe Weather on mobile